createdAt,value
2023-04-03T00:01:02.461Z,99335.65
2023-04-03T00:03:29.527Z,99332.65
2023-04-03T00:05:56.836Z,99333.98
2023-04-03T00:08:23.670Z,99337.75
2023-04-03T00:10:50.810Z,99338.84
2023-04-03T00:13:17.799Z,99338.54
2023-04-03T00:15:45.591Z,99337.60
2023-04-03T00:18:12.535Z,99339.23
2023-04-03T00:20:39.933Z,99339.12
2023-04-03T00:23:07.370Z,99338.78
2023-04-03T00:25:34.780Z,99341.65
2023-04-03T00:28:01.847Z,99343.67
2023-04-03T00:30:28.746Z,99337.58
2023-04-03T00:32:55.704Z,99339.02
2023-04-03T00:35:24.846Z,99340.59
2023-04-03T00:37:53.905Z,99341.10
2023-04-03T00:40:22.993Z,99342.09
2023-04-03T00:42:56.269Z,99344.66
2023-04-03T00:45:31.856Z,99349.58
2023-04-03T00:48:01.124Z,99347.20
2023-04-03T00:50:29.859Z,99350.62
2023-04-03T00:52:58.037Z,99349.83
2023-04-03T00:55:25.718Z,99347.95
2023-04-03T00:57:54.091Z,99352.13
2023-04-03T01:00:23.006Z,99352.01
2023-04-03T01:02:51.633Z,99350.41
2023-04-03T01:05:21.008Z,99349.86
2023-04-03T01:07:50.442Z,99350.80
2023-04-03T01:10:20.090Z,99347.99
2023-04-03T01:12:49.778Z,99348.50
2023-04-03T01:15:21.776Z,99348.70
2023-04-03T01:17:59.188Z,99351.46
2023-04-03T01:20:32.023Z,99349.41
2023-04-03T01:23:09.477Z,99349.84
2023-04-03T01:25:38.895Z,99345.52
2023-04-03T01:28:09.000Z,99349.46
2023-04-03T01:30:43.743Z,99347.76
2023-04-03T01:33:11.126Z,99348.91
2023-04-03T01:35:38.679Z,99351.15
2023-04-03T01:38:05.758Z,99350.03
2023-04-03T01:40:32.692Z,99351.23
2023-04-03T01:42:59.672Z,99358.73
2023-04-03T01:45:26.692Z,99352.70
2023-04-03T01:47:53.557Z,99358.14
2023-04-03T01:50:20.679Z,99358.61
2023-04-03T01:52:48.095Z,99359.15
2023-04-03T01:55:15.593Z,99361.10
2023-04-03T01:57:42.481Z,99364.65
2023-04-03T02:00:10.338Z,99366.76
2023-04-03T02:02:40.149Z,99369.80
2023-04-03T02:05:07.574Z,99374.02
2023-04-03T02:07:34.427Z,99372.52
2023-04-03T02:10:03.218Z,99373.27
2023-04-03T02:12:30.045Z,99374.19
2023-04-03T02:14:56.872Z,99369.98
2023-04-03T02:17:23.736Z,99377.65
2023-04-03T02:19:50.693Z,99381.78
2023-04-03T02:22:18.318Z,99380.52
2023-04-03T02:24:45.128Z,99383.88
2023-04-03T02:27:12.150Z,99379.98
2023-04-03T02:29:39.015Z,99379.69
2023-04-03T02:32:05.961Z,99380.00
2023-04-03T02:34:33.369Z,99383.23
2023-04-03T02:37:00.790Z,99388.39
2023-04-03T02:39:27.826Z,99387.58
2023-04-03T02:41:55.460Z,99393.00
2023-04-03T02:44:24.298Z,99390.71
2023-04-03T02:46:51.135Z,99391.33
2023-04-03T02:49:17.993Z,99393.30
2023-04-03T02:51:44.848Z,99394.71
2023-04-03T02:54:12.416Z,99394.12
2023-04-03T02:56:41.390Z,99395.23
2023-04-03T02:59:08.384Z,99393.23
2023-04-03T03:01:36.457Z,99393.11
2023-04-03T03:04:03.390Z,99401.61
2023-04-03T03:06:30.495Z,99405.01
2023-04-03T03:08:57.401Z,99401.65
2023-04-03T03:11:24.242Z,99403.80
2023-04-03T03:13:51.216Z,99405.80
2023-04-03T03:16:18.029Z,99411.26
2023-04-03T03:18:44.980Z,99413.02
2023-04-03T03:21:11.980Z,99412.03
2023-04-03T03:23:38.805Z,99415.27
2023-04-03T03:26:09.297Z,99416.79
2023-04-03T03:28:37.929Z,99420.48
2023-04-03T03:31:06.561Z,99420.98
2023-04-03T03:33:33.832Z,99427.00
2023-04-03T03:36:01.337Z,99426.48
2023-04-03T03:38:28.208Z,99425.46
2023-04-03T03:40:55.565Z,99428.58
2023-04-03T03:43:23.390Z,99429.94
2023-04-03T03:45:52.875Z,99432.45
2023-04-03T03:48:20.954Z,99435.70
2023-04-03T03:50:49.166Z,99436.73
2023-04-03T03:53:17.359Z,99437.13
2023-04-03T03:55:44.221Z,99438.08
2023-04-03T03:58:11.111Z,99438.25
2023-04-03T04:00:38.438Z,99439.04
2023-04-03T04:03:05.489Z,99439.58
2023-04-03T04:05:32.315Z,99441.72
2023-04-03T04:08:00.421Z,99442.89
2023-04-03T04:10:27.570Z,99444.94
2023-04-03T04:12:57.361Z,99445.81
2023-04-03T04:15:27.480Z,99449.27
2023-04-03T04:17:54.758Z,99449.11
2023-04-03T04:20:22.089Z,99449.73
2023-04-03T04:22:49.233Z,99447.98
2023-04-03T04:25:16.698Z,99450.14
2023-04-03T04:27:43.820Z,99448.41
2023-04-03T04:30:13.901Z,99453.05
2023-04-03T04:32:41.359Z,99454.73
2023-04-03T04:35:08.949Z,99462.73
2023-04-03T04:37:37.326Z,99463.66
2023-04-03T04:40:05.193Z,99466.86
2023-04-03T04:42:32.069Z,99467.73
2023-04-03T04:44:59.378Z,99467.03
2023-04-03T04:47:26.258Z,99473.27
2023-04-03T04:49:53.153Z,99474.30
2023-04-03T04:52:20.515Z,99476.65
2023-04-03T04:54:47.598Z,99478.23
2023-04-03T04:57:14.558Z,99482.39
2023-04-03T04:59:41.726Z,99481.92
2023-04-03T05:02:08.699Z,99484.84
2023-04-03T05:04:35.966Z,99486.70
2023-04-03T05:07:07.875Z,99486.35
2023-04-03T05:09:36.222Z,99486.86
2023-04-03T05:12:03.910Z,99487.48
2023-04-03T05:14:35.888Z,99491.42
2023-04-03T05:17:05.436Z,99490.09
2023-04-03T05:19:34.201Z,99494.76
2023-04-03T05:22:02.108Z,99493.10
2023-04-03T05:24:29.752Z,99497.20
2023-04-03T05:26:56.884Z,99495.17
2023-04-03T05:29:24.056Z,99494.59
2023-04-03T05:31:51.585Z,99493.09
2023-04-03T05:34:19.577Z,99493.95
2023-04-03T05:36:47.816Z,99494.15
2023-04-03T05:39:15.541Z,99486.14
2023-04-03T05:41:43.859Z,99488.15
2023-04-03T05:44:10.802Z,99492.01
2023-04-03T05:46:37.609Z,99495.08
2023-04-03T05:49:06.329Z,99489.23
2023-04-03T05:51:36.610Z,99484.08
2023-04-03T05:54:29.305Z,99486.60
2023-04-03T05:57:04.687Z,99488.21
2023-04-03T05:59:31.913Z,99489.02
2023-04-03T06:01:59.310Z,99488.91
2023-04-03T06:04:26.793Z,99492.46
2023-04-03T06:06:57.980Z,99490.15
2023-04-03T06:09:27.638Z,99486.45
2023-04-03T06:11:54.479Z,99490.89
2023-04-03T06:14:22.264Z,99490.38
2023-04-03T06:16:50.052Z,99495.85
2023-04-03T06:19:16.957Z,99500.27
2023-04-03T06:21:51.065Z,99501.34
2023-04-03T06:24:20.478Z,99500.55
2023-04-03T06:26:47.338Z,99501.58
2023-04-03T06:29:14.316Z,99506.09
2023-04-03T06:31:41.168Z,99503.81
2023-04-03T06:34:09.438Z,99505.48
2023-04-03T06:36:36.642Z,99508.02
2023-04-03T06:39:03.767Z,99518.23
2023-04-03T06:41:31.628Z,99518.60
2023-04-03T06:43:59.112Z,99522.17
2023-04-03T06:46:27.749Z,99518.73
2023-04-03T06:48:54.734Z,99520.27
2023-04-03T06:51:30.050Z,99520.05
2023-04-03T06:54:00.123Z,99516.38
2023-04-03T06:56:28.238Z,99518.46
2023-04-03T06:58:58.113Z,99519.52
2023-04-03T07:01:30.666Z,99525.50
2023-04-03T07:03:57.714Z,99528.04
2023-04-03T07:06:27.276Z,99526.23
2023-04-03T07:08:54.495Z,99533.58
2023-04-03T07:11:21.471Z,99537.30
2023-04-03T07:13:48.847Z,99539.66
2023-04-03T07:16:16.211Z,99534.52
2023-04-03T07:18:43.098Z,99538.15
2023-04-03T07:21:09.969Z,99539.34
2023-04-03T07:23:37.571Z,99538.86
2023-04-03T07:26:04.625Z,99540.25
2023-04-03T07:28:31.377Z,99539.98
2023-04-03T07:31:11.529Z,99546.10
2023-04-03T07:33:38.887Z,99542.73
2023-04-03T07:36:07.474Z,99550.30
2023-04-03T07:38:37.913Z,99548.65
2023-04-03T07:41:05.062Z,99551.27
2023-04-03T07:43:31.870Z,99549.01
2023-04-03T07:45:58.887Z,99558.42
2023-04-03T07:48:27.123Z,99556.78
2023-04-03T07:50:53.958Z,99561.00
2023-04-03T07:53:21.223Z,99564.25
2023-04-03T07:55:49.754Z,99565.60
2023-04-03T07:58:18.826Z,99574.75
2023-04-03T08:00:46.529Z,99575.83
2023-04-03T08:03:14.006Z,99585.20
2023-04-03T08:05:42.401Z,99589.58
2023-04-03T08:08:10.975Z,99590.75
2023-04-03T08:10:38.477Z,99588.73
2023-04-03T08:13:06.393Z,99586.50
2023-04-03T08:15:33.907Z,99581.42
2023-04-03T08:18:01.373Z,99581.90
2023-04-03T08:20:28.715Z,99580.58
2023-04-03T08:22:55.912Z,99585.92
2023-04-03T08:25:23.366Z,99582.41
2023-04-03T08:27:50.294Z,99586.56
2023-04-03T08:30:17.851Z,99590.02
2023-04-03T08:32:45.078Z,99593.11
2023-04-03T08:35:12.773Z,99597.65
2023-04-03T08:37:40.889Z,99600.11
2023-04-03T08:40:14.997Z,99602.08
2023-04-03T08:42:56.943Z,99605.89
2023-04-03T08:45:47.416Z,99606.09
2023-04-03T08:48:22.959Z,99614.09
2023-04-03T08:50:57.515Z,99615.27
2023-04-03T08:53:31.762Z,99621.69
2023-04-03T08:55:59.581Z,99634.31
2023-04-03T08:58:32.652Z,99631.45
2023-04-03T09:01:01.473Z,99639.21
2023-04-03T09:03:32.257Z,99647.39
2023-04-03T09:06:07.495Z,99647.23
2023-04-03T09:08:48.491Z,99642.55
2023-04-03T09:11:27.978Z,99648.19
2023-04-03T09:14:01.598Z,99655.70
2023-04-03T09:17:00.474Z,99654.64
2023-04-03T09:19:39.078Z,99656.63
2023-04-03T09:22:17.101Z,99662.17
2023-04-03T09:24:47.739Z,99664.27
2023-04-03T09:27:15.113Z,99666.65
2023-04-03T09:29:46.617Z,99675.92
2023-04-03T09:32:29.458Z,99677.24
2023-04-03T09:35:06.654Z,99685.45
2023-04-03T09:37:43.345Z,99691.59
2023-04-03T09:40:36.173Z,99698.27
2023-04-03T09:43:21.070Z,99702.66
2023-04-03T09:45:50.512Z,99701.89
2023-04-03T09:48:23.899Z,99711.88
2023-04-03T09:50:50.968Z,99715.96
2023-04-03T09:53:32.388Z,99714.89
2023-04-03T09:56:01.077Z,99719.33
2023-04-03T09:58:46.931Z,99722.38
2023-04-03T10:01:31.733Z,99718.70
2023-04-03T10:04:07.309Z,99721.67
2023-04-03T10:06:41.096Z,99721.17
2023-04-03T10:09:21.077Z,99722.66
2023-04-03T10:12:06.177Z,99729.65
2023-04-03T10:14:37.362Z,99728.07
2023-04-03T10:17:37.516Z,99728.01
2023-04-03T10:20:28.673Z,99721.21
2023-04-03T10:23:37.562Z,99720.48
2023-04-03T10:26:33.312Z,99722.40
2023-04-03T10:29:07.402Z,99729.41
2023-04-03T10:31:43.318Z,99727.08
2023-04-03T10:34:32.107Z,99731.39
2023-04-03T10:37:36.999Z,99741.00
2023-04-03T10:40:16.014Z,99739.96
2023-04-03T10:42:50.312Z,99743.56
2023-04-03T10:45:42.293Z,99741.23
2023-04-03T10:48:30.066Z,99740.14
2023-04-03T10:50:59.795Z,99741.06
2023-04-03T10:53:45.146Z,99745.75
2023-04-03T10:56:22.476Z,99749.16
2023-04-03T10:58:55.159Z,99749.73
2023-04-03T11:01:30.234Z,99754.15
2023-04-03T11:04:00.676Z,99764.42
2023-04-03T11:06:51.418Z,99764.20
2023-04-03T11:09:22.519Z,99770.46
2023-04-03T11:11:52.149Z,99772.53
2023-04-03T11:14:24.077Z,99773.35
2023-04-03T11:17:23.245Z,99775.25
2023-04-03T11:20:27.991Z,99773.70
2023-04-03T11:23:02.358Z,99776.18
2023-04-03T11:25:32.864Z,99775.35
2023-04-03T11:28:05.333Z,99771.02
2023-04-03T11:30:43.344Z,99763.23
2023-04-03T11:33:10.667Z,99762.11
2023-04-03T11:35:42.968Z,99763.54
2023-04-03T11:38:19.345Z,99763.84
2023-04-03T11:40:47.687Z,99766.73
2023-04-03T11:43:26.455Z,99766.00
2023-04-03T11:46:01.292Z,99762.80
2023-04-03T11:48:32.597Z,99759.45
2023-04-03T11:51:01.775Z,99758.77
2023-04-03T11:53:41.354Z,99765.47
2023-04-03T11:56:23.560Z,99769.65
2023-04-03T11:59:05.855Z,99773.91
2023-04-03T12:01:58.437Z,99772.11
2023-04-03T12:04:28.350Z,99772.41
2023-04-03T12:07:13.221Z,99763.98
2023-04-03T12:09:43.176Z,99773.27
2023-04-03T12:12:59.749Z,99777.16
2023-04-03T12:15:51.768Z,99768.92
2023-04-03T12:18:53.838Z,99762.11
2023-04-03T12:21:27.654Z,99757.98
2023-04-03T12:24:09.318Z,99748.12
2023-04-03T12:26:48.833Z,99743.61
2023-04-03T12:29:34.675Z,99737.16
2023-04-03T12:32:07.750Z,99737.80
2023-04-03T12:34:49.808Z,99740.75
2023-04-03T12:37:40.356Z,99739.42
2023-04-03T12:40:10.455Z,99746.09
2023-04-03T12:42:58.683Z,99744.15
2023-04-03T12:45:26.912Z,99752.48
2023-04-03T12:47:56.042Z,99752.75
2023-04-03T12:50:31.105Z,99748.99
2023-04-03T12:53:05.026Z,99751.58
2023-04-03T12:55:31.965Z,99749.79
2023-04-03T12:58:21.363Z,99749.11
2023-04-03T13:01:03.716Z,99744.93
2023-04-03T13:03:31.360Z,99740.33
2023-04-03T13:06:02.573Z,99737.52
2023-04-03T13:08:31.116Z,99743.75
2023-04-03T13:11:12.235Z,99746.21
2023-04-03T13:13:40.009Z,99744.14
2023-04-03T13:16:11.828Z,99753.64
2023-04-03T13:18:39.261Z,99759.66
2023-04-03T13:21:14.045Z,99761.22
2023-04-03T13:23:45.734Z,99764.78
2023-04-03T13:26:16.718Z,99758.10
2023-04-03T13:28:45.343Z,99761.01
2023-04-03T13:31:15.713Z,99765.13
2023-04-03T13:33:56.716Z,99769.33
2023-04-03T13:36:29.133Z,99772.91
2023-04-03T13:39:21.835Z,99775.98
2023-04-03T13:41:51.588Z,99779.44
2023-04-03T13:44:31.738Z,99781.44
2023-04-03T13:47:14.099Z,99787.22
2023-04-03T13:50:23.240Z,99787.64
2023-04-03T13:52:55.409Z,99778.21
2023-04-03T13:55:31.817Z,99773.34
2023-04-03T13:58:21.409Z,99767.84
2023-04-03T14:00:48.471Z,99767.32
2023-04-03T14:03:27.176Z,99771.34
2023-04-03T14:05:54.378Z,99776.83
2023-04-03T14:08:26.678Z,99780.63
2023-04-03T14:10:56.380Z,99780.21
2023-04-03T14:13:23.341Z,99777.54
2023-04-03T14:15:51.499Z,99782.52
2023-04-03T14:18:21.159Z,99791.45
2023-04-03T14:20:50.100Z,99796.44
2023-04-03T14:23:16.880Z,99795.45
2023-04-03T14:25:44.546Z,99805.27
2023-04-03T14:28:21.226Z,99809.54
2023-04-03T14:30:50.538Z,99811.39
2023-04-03T14:33:21.425Z,99814.58
2023-04-03T14:35:49.671Z,99813.27
2023-04-03T14:38:27.364Z,99813.95
2023-04-03T14:40:58.945Z,99816.88
2023-04-03T14:43:30.842Z,99812.59
2023-04-03T14:45:57.852Z,99806.59
2023-04-03T14:48:27.750Z,99804.30
2023-04-03T14:51:04.607Z,99810.25
2023-04-03T14:53:38.649Z,99822.39
2023-04-03T14:56:13.836Z,99827.98
2023-04-03T14:58:40.791Z,99824.80
2023-04-03T15:01:11.030Z,99826.61
2023-04-03T15:03:38.286Z,99833.95
2023-04-03T15:06:06.287Z,99840.58
2023-04-03T15:08:33.178Z,99844.39
2023-04-03T15:11:01.407Z,99854.23
2023-04-03T15:13:28.243Z,99867.77
2023-04-03T15:15:55.575Z,99878.80
2023-04-03T15:18:27.390Z,99878.42
2023-04-03T15:20:55.837Z,99879.66
2023-04-03T15:23:30.349Z,99877.68
2023-04-03T15:25:58.327Z,99878.73
2023-04-03T15:28:38.209Z,99879.52
2023-04-03T15:31:05.922Z,99882.98
2023-04-03T15:33:34.063Z,99892.85
2023-04-03T15:36:06.911Z,99892.33
2023-04-03T15:38:35.547Z,99901.14
2023-04-03T15:41:02.426Z,99902.15
2023-04-03T15:43:29.317Z,99908.26
2023-04-03T15:45:59.971Z,99913.34
2023-04-03T15:48:28.574Z,99918.98
2023-04-03T15:50:57.186Z,99923.67
2023-04-03T15:53:24.626Z,99930.45
2023-04-03T15:55:51.409Z,99939.69
2023-04-03T15:58:18.260Z,99949.40
2023-04-03T16:00:45.407Z,99956.13
2023-04-03T16:03:16.860Z,99956.84
2023-04-03T16:05:44.432Z,99954.10
2023-04-03T16:08:12.201Z,99954.64
2023-04-03T16:10:40.222Z,99957.73
2023-04-03T16:13:07.651Z,99951.05
2023-04-03T16:15:36.058Z,99959.24
2023-04-03T16:18:03.778Z,99967.33
2023-04-03T16:20:31.273Z,99974.16
2023-04-03T16:23:00.481Z,99981.84
2023-04-03T16:25:28.377Z,99982.41
2023-04-03T16:27:55.260Z,99984.67
2023-04-03T16:30:22.171Z,99993.33
2023-04-03T16:32:49.230Z,99998.70
2023-04-03T16:35:16.423Z,100005.61
2023-04-03T16:37:43.180Z,100010.92
2023-04-03T16:40:12.235Z,100015.36
2023-04-03T16:42:39.399Z,100018.39
2023-04-03T16:45:07.318Z,100018.88
2023-04-03T16:47:34.680Z,100024.06
2023-04-03T16:50:01.721Z,100034.66
2023-04-03T16:52:29.022Z,100034.81
2023-04-03T16:54:56.003Z,100046.52
2023-04-03T16:57:25.202Z,100041.45
2023-04-03T16:59:52.648Z,100045.14
2023-04-03T17:02:20.998Z,100044.12
2023-04-03T17:04:48.625Z,100051.05
2023-04-03T17:07:16.363Z,100051.45
2023-04-03T17:09:43.151Z,100062.34
2023-04-03T17:12:10.518Z,100066.85
2023-04-03T17:14:37.343Z,100073.58
2023-04-03T17:17:04.703Z,100074.42
2023-04-03T17:19:31.580Z,100070.66
2023-04-03T17:21:59.097Z,100070.80
2023-04-03T17:24:26.950Z,100074.82
2023-04-03T17:26:53.774Z,100074.52
2023-04-03T17:29:20.989Z,100075.35
2023-04-03T17:31:47.753Z,100076.33
2023-04-03T17:34:14.577Z,100078.51
2023-04-03T17:36:42.041Z,100084.67
2023-04-03T17:39:08.970Z,100088.70
2023-04-03T17:41:35.986Z,100095.15
2023-04-03T17:44:03.665Z,100094.83
2023-04-03T17:46:32.617Z,100097.30
2023-04-03T17:49:01.777Z,100104.11
2023-04-03T17:51:28.763Z,100106.50
2023-04-03T17:53:56.167Z,100107.80
2023-04-03T17:56:26.618Z,100115.98
2023-04-03T17:58:56.185Z,100122.23
2023-04-03T18:01:32.306Z,100127.70
2023-04-03T18:04:02.768Z,100119.65
2023-04-03T18:06:51.428Z,100118.46
2023-04-03T18:09:21.224Z,100116.42
2023-04-03T18:11:49.326Z,100119.48
2023-04-03T18:14:21.282Z,100117.50
2023-04-03T18:16:48.557Z,100115.88
2023-04-03T18:21:47.374Z,100108.97
2023-04-03T18:24:17.837Z,100109.60
2023-04-03T18:26:50.572Z,100105.98
2023-04-03T18:29:18.620Z,100101.04
2023-04-03T18:31:50.078Z,100110.98
2023-04-03T18:34:17.147Z,100113.90
2023-04-03T18:36:44.275Z,100115.05
2023-04-03T18:39:11.520Z,100113.11
2023-04-03T18:41:38.936Z,100104.91
2023-04-03T18:44:11.302Z,100112.11
2023-04-03T18:46:39.106Z,100112.92
2023-04-03T18:49:07.842Z,100114.15
2023-04-03T18:51:34.794Z,100119.27
2023-04-03T18:54:02.712Z,100121.92
2023-04-03T18:56:30.856Z,100125.11
2023-04-03T18:58:57.848Z,100123.41
2023-04-03T19:01:25.018Z,100122.70
2023-04-03T19:03:52.219Z,100124.23
2023-04-03T19:06:19.190Z,100129.83
2023-04-03T19:08:46.622Z,100134.95
2023-04-03T19:11:13.542Z,100138.30
2023-04-03T19:13:46.885Z,100137.00
2023-04-03T19:16:27.766Z,100135.27
2023-04-03T19:18:54.878Z,100141.05
2023-04-03T19:21:22.047Z,100141.52
2023-04-03T19:23:48.814Z,100132.65
2023-04-03T19:26:15.998Z,100123.50
2023-04-03T19:28:43.566Z,100124.52
2023-04-03T19:31:13.538Z,100126.23
2023-04-03T19:33:41.755Z,100125.61
2023-04-03T19:36:09.729Z,100123.84
2023-04-03T19:38:37.881Z,100129.35
2023-04-03T19:41:08.028Z,100127.59
2023-04-03T19:43:36.591Z,100130.64
2023-04-03T19:46:05.597Z,100135.20
2023-04-03T19:48:33.208Z,100138.80
2023-04-03T19:51:00.177Z,100140.61
2023-04-03T19:53:28.814Z,100143.49
2023-04-03T19:55:56.833Z,100145.29
2023-04-03T19:58:27.371Z,100148.98
2023-04-03T20:00:55.386Z,100152.83
2023-04-03T20:03:23.783Z,100157.15
2023-04-03T20:05:51.051Z,100154.45
2023-04-03T20:08:18.773Z,100150.68
2023-04-03T20:10:45.965Z,100159.16
2023-04-03T20:13:13.380Z,100167.63
2023-04-03T20:15:44.438Z,100174.20
2023-04-03T20:18:17.288Z,100178.90
2023-04-03T20:20:58.956Z,100176.88
2023-04-03T20:23:26.794Z,100182.98
2023-04-03T20:26:08.675Z,100179.61
2023-04-03T20:28:37.477Z,100176.04
2023-04-03T20:31:05.926Z,100165.90
2023-04-03T20:33:33.027Z,100163.42
2023-04-03T20:36:01.588Z,100164.40
2023-04-03T20:38:28.438Z,100163.81
2023-04-03T20:40:55.497Z,100163.02
2023-04-03T20:43:23.135Z,100157.40
2023-04-03T20:45:50.410Z,100157.98
2023-04-03T20:48:17.673Z,100158.20
2023-04-03T20:50:45.843Z,100158.98
2023-04-03T20:53:14.164Z,100161.48
2023-04-03T20:55:41.765Z,100162.20
2023-04-03T20:58:08.941Z,100166.89
2023-04-03T21:00:37.313Z,100167.86
2023-04-03T21:03:05.137Z,100165.86
2023-04-03T21:05:34.200Z,100157.29
2023-04-03T21:08:39.564Z,100161.42
2023-04-03T21:11:43.937Z,100158.34
2023-04-03T21:14:48.466Z,100156.36
2023-04-03T21:17:15.871Z,100154.85
2023-04-03T21:19:45.595Z,100156.06
2023-04-03T21:22:15.542Z,100157.30
2023-04-03T21:24:43.862Z,100155.28
2023-04-03T21:27:10.821Z,100155.86
2023-04-03T21:29:38.246Z,100157.10
2023-04-03T21:32:05.484Z,100146.38
2023-04-03T21:34:32.728Z,100145.75
2023-04-03T21:37:08.178Z,100142.68
2023-04-03T21:39:35.524Z,100146.15
2023-04-03T21:42:02.323Z,100144.78
2023-04-03T21:44:29.255Z,100143.27
2023-04-03T21:46:56.189Z,100145.01
2023-04-03T21:49:24.870Z,100147.36
2023-04-03T21:51:52.057Z,100148.81
2023-04-03T21:54:19.937Z,100148.17
2023-04-03T21:56:48.063Z,100142.91
2023-04-03T21:59:15.347Z,100139.54
2023-04-03T22:01:42.756Z,100141.42
2023-04-03T22:04:10.299Z,100145.13
2023-04-03T22:06:37.619Z,100143.26
2023-04-03T22:09:04.688Z,100142.23
2023-04-03T22:11:31.781Z,100136.73
2023-04-03T22:13:59.709Z,100140.39
2023-04-03T22:16:26.979Z,100139.66
2023-04-03T22:18:54.517Z,100140.20
2023-04-03T22:21:21.572Z,100135.92
2023-04-03T22:23:48.301Z,100135.30
2023-04-03T22:26:15.191Z,100141.38
2023-04-03T22:28:45.283Z,100148.28
2023-04-03T22:31:13.657Z,100146.42
2023-04-03T22:33:41.749Z,100145.05
2023-04-03T22:36:10.251Z,100144.53
2023-04-03T22:38:38.515Z,100141.75
2023-04-03T22:41:06.966Z,100142.05
2023-04-03T22:43:35.810Z,100145.20
2023-04-03T22:46:04.327Z,100143.05
2023-04-03T22:48:31.379Z,100140.66
2023-04-03T22:50:59.482Z,100141.71
2023-04-03T22:53:26.943Z,100137.59
2023-04-03T22:55:58.606Z,100132.64
2023-04-03T22:58:27.103Z,100130.61
2023-04-03T23:01:14.269Z,100131.33
2023-04-03T23:03:42.532Z,100135.17
2023-04-03T23:06:10.243Z,100137.77
2023-04-03T23:08:38.329Z,100133.72
2023-04-03T23:11:06.592Z,100124.33
2023-04-03T23:13:33.722Z,100124.79
2023-04-03T23:16:02.057Z,100128.14
2023-04-03T23:18:30.836Z,100129.41
2023-04-03T23:21:03.066Z,100127.61
2023-04-03T23:23:30.182Z,100121.94
2023-04-03T23:25:59.921Z,100121.63
2023-04-03T23:28:27.611Z,100127.53
2023-04-03T23:31:03.475Z,100128.25
2023-04-03T23:33:31.535Z,100128.91
2023-04-03T23:36:06.093Z,100127.52
2023-04-03T23:38:33.286Z,100122.68
2023-04-03T23:41:00.853Z,100120.82
2023-04-03T23:43:28.312Z,100112.86
2023-04-03T23:45:55.250Z,100118.55
2023-04-03T23:48:22.191Z,100116.52
2023-04-03T23:50:48.983Z,100118.15
2023-04-03T23:53:15.899Z,100122.20
2023-04-03T23:55:42.621Z,100125.11
2023-04-03T23:58:10.451Z,100125.14
